Boa Esperanca, Brazil
Current Conditions -  °F | °C
As of 11:00 PM on Wednesday 17 Dec 2014 (Local Time) from SBCA Reporting Station
Scattered Clouds Scattered Clouds  
Wind Chill: 66°   Ceiling: Unl
Heat Index: 66°   Visibility: 6mi
Dew Point: 57°   Wind: 21mph
Humidity: 73%   Direction: 360°N
Pressure: 29.97"   Gusts: NA
Location:  24.24°S, 52.79°W
Report Text: SBCA 180100Z 36018KT 9999 FEW040 SCT100 19/14 Q1015
Loading
Personal Weather Stations






























Interactive Weather Map New forecast layout! Learn more

10-Day Weather Forecast

Advertisements
Track Severe Weather on mobile